Aérodrome :
LOGIN :

S'inscrire | Disclaimer

   EN    FR    IT 

 










Légende :    VFR   VFR Marginal   IFR   IFR Intensif   IFR Très Intensif
Visi : 
Plafond : 
>= 8 km
>= 3000ft
5 à 8 km
1000 à 3000 ft
1500m à 5 km
500 à 1000 ft
800 à 1500m
200 à 500 ft
< 800m
< 200 ft
Symboles :   Orages  Brouillard  Fortes neiges  Fortes précipitations  Vent > 20 kt
SIGMETs :   Divers  Orages  Givrage  Turbulence  Onde Orograph.  Cendres Volcan.







- Altitude de l'aérodrome : 37 ft
- Code IATA : OLB


LIEO - Olbia Costa Smeralda

DERNIER METAR :
  • 230320Z 24018KT CAVOK 23/18 Q1010

METARs EXPIRÉS :
  • 230250Z 25020KT CAVOK 23/18 Q1010
  • 230220Z 25017KT CAVOK 23/18 Q1010
  • 230150Z 23009KT CAVOK 23/18 Q1011
  • 230120Z 24015KT CAVOK 24/18 Q1011
  • 230050Z 24013KT CAVOK 24/18 Q1011

TAF TAF LIEO
Valide du 23 à 00h jusqu'au 24 à 00h UTC


222300Z 2300/2324 30015G25KT 9999 SCT030
Pas de NOTAMs connus pour ce terrain.
1 SIGMET publié pour la FIR Roma (LIRR) :
 
Orages noyés dans la masse
LIRR SIGMET 2 VALID 230200/230500 LIIB
LIRR ROMA FIR EMBD TS FCST WI N4022 E00800 - N4028 E01054 - N4209 E01344 - N4253 E01311 - N4333 E01317 - N4344 E01106 - N4333 E01021 - N4314 E00937 - N4119 E00944 - N4118 E00822 - N4100 E00757 - N4022 E00800 TOP FL390 STNR NC=



MET'MAP, la Météo Aéronautique d'un coup d'oeil ! - Copyright ORBIFLY Décembre 2007 - Disclaimer

ORBIFLY MET'MAP TEAM :

Programmation & Développement : Alexandra Zaïnal
Conception & Développement : Baudouin d'Aumeries
Co-Programmation & Développement : Marc-Olivier Méhu
Soutien technique & logistique : Manuel Goepfert

Contact : metmap@orbifly.com




SOURCES & CREDITS :

   NOAA